Time;durP1;ratioP1;P1;durP2;ratioP2;P2;SDS_P1;SDS_P2;PMS_P1;PMS_P2;Temp;Humidity;BMP_temperature;BMP_pressure;BME280_temperature;BME280_humidity;BME280_pressure;Samples;Min_cycle;Max_cycle;Signal;HPM_P1;HPM_P2
2023/05/04 00:01:10;;;;;;;18.67;10.45;;;;;;;;;;5033045;28;20544;-55
2023/05/04 00:03:38;;;;;;;19.08;10.60;;;;;;;;;;5033033;28;20104;-54
2023/05/04 00:06:05;;;;;;;21.55;10.60;;;;;;;;;;5032442;28;20025;-52
2023/05/04 00:08:31;;;;;;;18.13;10.10;;;;;;;;;;5032663;28;20029;-56
2023/05/04 00:10:57;;;;;;;20.20;10.63;;;;;;;;;;5014936;28;20064;-58
2023/05/04 00:13:23;;;;;;;18.58;10.68;;;;;;;;;;5014421;28;20064;-58
2023/05/04 00:15:49;;;;;;;21.13;10.18;;;;;;;;;;5032754;28;20504;-57
2023/05/04 00:18:15;;;;;;;17.75;10.57;;;;;;;;;;5015414;28;20061;-56
2023/05/04 00:20:41;;;;;;;17.92;10.30;;;;;;;;;;5014885;28;20025;-57
2023/05/04 00:23:07;;;;;;;27.40;10.88;;;;;;;;;;5014794;28;20036;-54
2023/05/04 00:25:33;;;;;;;16.02;9.85;;;;;;;;;;5033902;28;20028;-53
2023/05/04 00:27:59;;;;;;;18.80;10.20;;;;;;;;;;5033669;28;20052;-53
2023/05/04 00:30:27;;;;;;;16.48;9.00;;;;;;;;;;5044772;28;20477;-55
2023/05/04 00:32:53;;;;;;;18.85;10.13;;;;;;;;;;5052657;28;20021;-52
2023/05/04 00:35:19;;;;;;;18.08;10.15;;;;;;;;;;5051827;28;20017;-55
2023/05/04 00:37:45;;;;;;;16.95;9.90;;;;;;;;;;5053103;28;20025;-58
2023/05/04 00:40:11;;;;;;;19.77;10.70;;;;;;;;;;5034790;28;20103;-54
2023/05/04 00:42:37;;;;;;;19.00;9.80;;;;;;;;;;5051904;28;20035;-52
2023/05/04 00:45:03;;;;;;;18.83;10.93;;;;;;;;;;5052024;28;20017;-54
2023/05/04 00:47:29;;;;;;;18.23;10.63;;;;;;;;;;5052496;28;20022;-54
2023/05/04 00:49:56;;;;;;;19.20;10.23;;;;;;;;;;5052244;28;20536;-52
2023/05/04 00:52:23;;;;;;;18.63;10.20;;;;;;;;;;5034004;28;20056;-56
2023/05/04 00:54:49;;;;;;;19.58;10.20;;;;;;;;;;5033716;28;20036;-59
2023/05/04 00:57:15;;;;;;;18.33;10.65;;;;;;;;;;5033641;28;20408;-59
2023/05/04 00:59:41;;;;;;;22.27;10.05;;;;;;;;;;5051699;28;20033;-54
2023/05/04 01:02:07;;;;;;;16.20;9.95;;;;;;;;;;5051533;28;20053;-55
2023/05/04 01:04:33;;;;;;;19.38;10.02;;;;;;;;;;5051641;28;20495;-56
2023/05/04 01:07:05;;;;;;;17.67;9.70;;;;;;;;;;5033825;28;20059;-57
2023/05/04 01:09:43;;;;;;;18.10;10.18;;;;;;;;;;5051916;28;20021;-53
2023/05/04 01:12:35;;;;;;;17.75;10.35;;;;;;;;;;5051807;28;20599;-55
2023/05/04 01:15:02;;;;;;;18.27;10.18;;;;;;;;;;5047222;28;20033;-57
2023/05/04 01:17:28;;;;;;;19.27;9.93;;;;;;;;;;5051740;28;20025;-55
2023/05/04 01:19:54;;;;;;;18.15;10.45;;;;;;;;;;5034048;28;20074;-56
2023/05/04 01:22:21;;;;;;;19.45;10.27;;;;;;;;;;5051818;28;20017;-53
2023/05/04 01:24:47;;;;;;;16.30;10.38;;;;;;;;;;5052577;28;20108;-55
2023/05/04 01:27:30;;;;;;;18.90;10.20;;;;;;;;;;5055634;28;20033;-54
2023/05/04 01:29:59;;;;;;;20.60;10.73;;;;;;;;;;5055607;28;20025;-55
2023/05/04 01:32:28;;;;;;;21.80;13.05;;;;;;;;;;5037829;28;20028;-58
2023/05/04 01:34:54;;;;;;;24.00;14.18;;;;;;;;;;5037174;28;20365;-54
2023/05/04 01:37:20;;;;;;;18.48;10.55;;;;;;;;;;5055233;28;20029;-55
2023/05/04 01:39:46;;;;;;;17.88;10.20;;;;;;;;;;5055270;28;20116;-55
2023/05/04 01:42:12;;;;;;;21.67;11.15;;;;;;;;;;5054990;28;20064;-55
2023/05/04 01:44:38;;;;;;;21.38;10.43;;;;;;;;;;5054827;28;20414;-54
2023/05/04 01:47:04;;;;;;;18.33;10.00;;;;;;;;;;5054994;28;20465;-55
2023/05/04 01:49:30;;;;;;;18.85;11.07;;;;;;;;;;5050375;28;20030;-53
2023/05/04 01:51:56;;;;;;;18.00;10.20;;;;;;;;;;5016679;28;20040;-57
2023/05/04 01:54:22;;;;;;;20.40;10.10;;;;;;;;;;5016954;28;20018;-55
2023/05/04 01:56:48;;;;;;;19.08;10.80;;;;;;;;;;5017326;28;20017;-57
2023/05/04 01:59:14;;;;;;;18.90;10.30;;;;;;;;;;5017102;28;20025;-57
2023/05/04 02:01:40;;;;;;;19.13;10.38;;;;;;;;;;5034551;28;20048;-55
2023/05/04 02:04:06;;;;;;;18.67;10.55;;;;;;;;;;5034680;28;20477;-55
2023/05/04 02:06:32;;;;;;;17.73;10.32;;;;;;;;;;5035116;28;20048;-54
2023/05/04 02:08:59;;;;;;;19.13;10.18;;;;;;;;;;5017140;28;20481;-54
2023/05/04 02:11:25;;;;;;;17.52;10.43;;;;;;;;;;5017283;28;20033;-54
2023/05/04 02:13:51;;;;;;;18.10;9.95;;;;;;;;;;5034885;28;20018;-55
2023/05/04 02:16:17;;;;;;;26.25;11.05;;;;;;;;;;5034831;28;20029;-54
2023/05/04 02:18:43;;;;;;;21.25;10.60;;;;;;;;;;5034799;28;20489;-55
2023/05/04 02:21:09;;;;;;;17.02;9.88;;;;;;;;;;5034837;28;20084;-57
2023/05/04 02:23:35;;;;;;;17.27;9.48;;;;;;;;;;5033594;28;20072;-53
2023/05/04 02:26:01;;;;;;;18.38;9.95;;;;;;;;;;5035697;28;20045;-56
2023/05/04 02:28:27;;;;;;;19.05;10.50;;;;;;;;;;5019183;28;20382;-56
2023/05/04 02:30:53;;;;;;;17.25;10.25;;;;;;;;;;5036504;28;20030;-55
2023/05/04 02:33:19;;;;;;;20.30;10.27;;;;;;;;;;5034893;28;20092;-55
2023/05/04 02:35:45;;;;;;;19.73;10.35;;;;;;;;;;5033846;28;20032;-56
2023/05/04 02:38:11;;;;;;;18.15;10.25;;;;;;;;;;5034508;28;20029;-59
2023/05/04 02:40:37;;;;;;;16.58;9.98;;;;;;;;;;5016761;28;20025;-56
2023/05/04 02:43:03;;;;;;;17.50;10.20;;;;;;;;;;5033842;28;20041;-58
2023/05/04 02:45:29;;;;;;;21.17;11.00;;;;;;;;;;5034011;28;20041;-56
2023/05/04 02:47:55;;;;;;;18.55;10.18;;;;;;;;;;5034008;28;20037;-58
2023/05/04 02:50:21;;;;;;;23.95;12.98;;;;;;;;;;5016446;28;20481;-54
2023/05/04 02:52:47;;;;;;;18.17;9.98;;;;;;;;;;5016496;28;20116;-57
2023/05/04 02:55:13;;;;;;;21.77;10.50;;;;;;;;;;5033888;28;20045;-54
2023/05/04 02:57:39;;;;;;;17.75;10.50;;;;;;;;;;5034097;28;20013;-55
2023/05/04 03:00:06;;;;;;;19.48;10.75;;;;;;;;;;5016143;28;20021;-53
2023/05/04 03:02:32;;;;;;;18.65;10.82;;;;;;;;;;5033828;28;20030;-54
2023/05/04 03:04:58;;;;;;;18.73;10.90;;;;;;;;;;5015871;28;20033;-52
2023/05/04 03:07:25;;;;;;;18.48;10.30;;;;;;;;;;5015841;28;20053;-57
2023/05/04 03:09:51;;;;;;;19.17;10.80;;;;;;;;;;5034358;28;20456;-57
2023/05/04 03:12:17;;;;;;;18.02;10.75;;;;;;;;;;5016125;28;20049;-55
2023/05/04 03:14:43;;;;;;;19.38;10.95;;;;;;;;;;5033530;28;20029;-55
2023/05/04 03:17:09;;;;;;;21.90;11.02;;;;;;;;;;5016235;28;20021;-58
2023/05/04 03:19:35;;;;;;;17.60;11.32;;;;;;;;;;5034166;28;20033;-58
2023/05/04 03:22:01;;;;;;;18.17;10.73;;;;;;;;;;5033905;28;20381;-56
2023/05/04 03:24:27;;;;;;;18.95;11.60;;;;;;;;;;5033394;28;20022;-57
2023/05/04 03:26:53;;;;;;;19.65;11.65;;;;;;;;;;5033131;28;20112;-55
2023/05/04 03:29:19;;;;;;;19.45;11.30;;;;;;;;;;5033258;28;20053;-56
2023/05/04 03:31:45;;;;;;;20.75;11.23;;;;;;;;;;5015357;28;20061;-57
2023/05/04 03:34:13;;;;;;;22.48;12.27;;;;;;;;;;5032913;28;20092;-55
2023/05/04 03:36:39;;;;;;;20.17;11.97;;;;;;;;;;5032889;28;20129;-57
2023/05/04 03:39:06;;;;;;;19.85;11.32;;;;;;;;;;5033042;28;20108;-56
2023/05/04 03:41:32;;;;;;;21.05;12.63;;;;;;;;;;5015232;28;20033;-53
2023/05/04 03:43:58;;;;;;;18.58;11.77;;;;;;;;;;5032229;28;20079;-55
2023/05/04 03:46:24;;;;;;;21.42;12.00;;;;;;;;;;5032751;28;20436;-55
2023/05/04 03:48:50;;;;;;;19.67;11.63;;;;;;;;;;5032107;28;20021;-55
2023/05/04 03:51:16;;;;;;;19.98;10.82;;;;;;;;;;5015354;28;20453;-57
2023/05/04 03:53:42;;;;;;;21.38;11.18;;;;;;;;;;5015450;28;20053;-58
2023/05/04 03:56:08;;;;;;;19.27;11.23;;;;;;;;;;5032876;28;20089;-55
2023/05/04 03:58:35;;;;;;;18.90;11.30;;;;;;;;;;5015843;28;20030;-58
2023/05/04 04:01:02;;;;;;;18.17;11.20;;;;;;;;;;5016583;28;20401;-54
2023/05/04 04:03:28;;;;;;;19.92;12.10;;;;;;;;;;5015486;28;20497;-52
2023/05/04 04:05:54;;;;;;;21.50;11.27;;;;;;;;;;5014697;28;20120;-57
2023/05/04 04:08:20;;;;;;;21.38;11.43;;;;;;;;;;5032513;28;20022;-54
2023/05/04 04:10:46;;;;;;;19.40;12.40;;;;;;;;;;5032304;28;20477;-57
2023/05/04 04:13:12;;;;;;;21.17;11.20;;;;;;;;;;5032319;28;20120;-53
2023/05/04 04:15:39;;;;;;;19.83;12.30;;;;;;;;;;5014723;28;20488;-57
2023/05/04 04:18:05;;;;;;;18.50;11.55;;;;;;;;;;5032351;28;20030;-54
2023/05/04 04:20:31;;;;;;;18.60;11.18;;;;;;;;;;5032446;28;20034;-55
2023/05/04 04:22:57;;;;;;;21.98;12.45;;;;;;;;;;5032151;28;20030;-57
2023/05/04 04:25:23;;;;;;;18.83;11.48;;;;;;;;;;5031832;28;20107;-58
2023/05/04 04:27:50;;;;;;;24.73;12.20;;;;;;;;;;5032015;28;20052;-57
2023/05/04 04:30:16;;;;;;;18.58;11.63;;;;;;;;;;5032114;28;20025;-54
2023/05/04 04:32:42;;;;;;;18.85;11.90;;;;;;;;;;5014053;28;20079;-60
2023/05/04 04:35:08;;;;;;;22.27;12.02;;;;;;;;;;5031650;28;20094;-56
2023/05/04 04:37:34;;;;;;;20.58;11.88;;;;;;;;;;5031981;28;20028;-56
2023/05/04 04:40:00;;;;;;;21.48;12.70;;;;;;;;;;5032121;28;20048;-56
2023/05/04 04:42:26;;;;;;;21.88;13.40;;;;;;;;;;5031515;28;20033;-54
2023/05/04 04:44:53;;;;;;;21.55;12.55;;;;;;;;;;5032314;28;20103;-58
2023/05/04 04:47:19;;;;;;;25.73;12.18;;;;;;;;;;5010980;28;20033;-56
2023/05/04 04:49:45;;;;;;;20.40;11.77;;;;;;;;;;5031227;28;20474;-52
2023/05/04 04:52:11;;;;;;;19.08;12.00;;;;;;;;;;5031565;28;20020;-56
2023/05/04 04:54:37;;;;;;;20.35;12.15;;;;;;;;;;5031515;28;20175;-55
2023/05/04 04:57:03;;;;;;;19.85;11.98;;;;;;;;;;5013827;28;20041;-53
2023/05/04 04:59:29;;;;;;;20.90;12.20;;;;;;;;;;5032248;28;20096;-58
2023/05/04 05:01:57;;;;;;;21.60;12.50;;;;;;;;;;5018188;28;20445;-55
2023/05/04 05:04:24;;;;;;;23.58;12.43;;;;;;;;;;5036584;28;20040;-57
2023/05/04 05:06:50;;;;;;;22.60;11.77;;;;;;;;;;5036895;28;20555;-56
2023/05/04 05:09:16;;;;;;;23.40;12.38;;;;;;;;;;5036171;28;20109;-55
2023/05/04 05:11:42;;;;;;;21.30;11.82;;;;;;;;;;5035508;28;20137;-58
2023/05/04 05:14:09;;;;;;;19.73;11.30;;;;;;;;;;5035044;28;20025;-56
2023/05/04 05:16:35;;;;;;;32.17;15.70;;;;;;;;;;5017842;28;20151;-55
2023/05/04 05:19:01;;;;;;;22.65;13.65;;;;;;;;;;5040792;28;20033;-57
2023/05/04 05:21:27;;;;;;;21.40;12.40;;;;;;;;;;5037207;28;20026;-54
2023/05/04 05:23:53;;;;;;;23.00;13.13;;;;;;;;;;5034368;28;20104;-56
2023/05/04 05:26:19;;;;;;;20.88;11.85;;;;;;;;;;5034949;28;20117;-56
2023/05/04 05:28:45;;;;;;;29.38;13.43;;;;;;;;;;5035151;28;20032;-53
2023/05/04 05:31:11;;;;;;;21.27;12.93;;;;;;;;;;5017238;28;20025;-56
2023/05/04 05:33:37;;;;;;;19.60;12.50;;;;;;;;;;5033341;28;20025;-57
2023/05/04 05:36:04;;;;;;;19.02;11.88;;;;;;;;;;5033551;28;20055;-59
2023/05/04 05:38:30;;;;;;;19.52;11.52;;;;;;;;;;5034888;28;20485;-56
2023/05/04 05:40:56;;;;;;;21.25;12.55;;;;;;;;;;5034927;28;20522;-60
2023/05/04 05:43:22;;;;;;;21.38;12.27;;;;;;;;;;5030696;23;20061;-61
2023/05/04 05:45:48;;;;;;;21.92;12.32;;;;;;;;;;5033699;28;20529;-61
2023/05/04 05:48:15;;;;;;;22.35;12.20;;;;;;;;;;5017156;28;20025;-62
2023/05/04 05:50:40;;;;;;;20.45;11.48;;;;;;;;;;5034522;28;20037;-61
2023/05/04 05:53:06;;;;;;;19.23;11.50;;;;;;;;;;5035294;28;20482;-62
2023/05/04 05:55:32;;;;;;;21.10;11.98;;;;;;;;;;5034819;28;20073;-62
2023/05/04 05:57:58;;;;;;;21.42;11.77;;;;;;;;;;5054522;28;20025;-61
2023/05/04 06:00:24;;;;;;;19.52;11.85;;;;;;;;;;5037398;28;20021;-61
2023/05/04 06:02:51;;;;;;;23.80;13.18;;;;;;;;;;5036644;28;20021;-63
2023/05/04 06:05:17;;;;;;;23.20;11.18;;;;;;;;;;5039055;28;20100;-62
2023/05/04 06:07:43;;;;;;;19.05;11.25;;;;;;;;;;5029216;28;20492;-62
2023/05/04 06:10:09;;;;;;;18.98;11.93;;;;;;;;;;5033795;28;20060;-62
2023/05/04 06:12:35;;;;;;;21.83;12.82;;;;;;;;;;5016278;28;20053;-62
2023/05/04 06:15:01;;;;;;;23.13;12.30;;;;;;;;;;5033821;28;20028;-60
2023/05/04 06:17:27;;;;;;;23.02;11.70;;;;;;;;;;5034050;28;20022;-62
2023/05/04 06:19:53;;;;;;;21.13;12.05;;;;;;;;;;5016579;28;20516;-62
2023/05/04 06:22:19;;;;;;;20.10;12.23;;;;;;;;;;5033395;28;20033;-62
2023/05/04 06:24:45;;;;;;;20.48;12.23;;;;;;;;;;5033029;28;20114;-62
2023/05/04 06:27:11;;;;;;;23.27;13.40;;;;;;;;;;5033176;28;20466;-61
2023/05/04 06:29:39;;;;;;;20.42;11.35;;;;;;;;;;5033352;28;20036;-62
2023/05/04 06:32:05;;;;;;;22.35;12.52;;;;;;;;;;5015703;28;20109;-62
2023/05/04 06:34:31;;;;;;;22.48;12.30;;;;;;;;;;5033437;28;20025;-61
2023/05/04 06:36:57;;;;;;;19.67;11.48;;;;;;;;;;5015953;28;20022;-61
2023/05/04 06:39:23;;;;;;;21.45;12.20;;;;;;;;;;5015806;28;20022;-62
2023/05/04 06:41:49;;;;;;;18.92;11.48;;;;;;;;;;5032899;28;20030;-62
2023/05/04 06:44:16;;;;;;;22.75;12.32;;;;;;;;;;5033108;28;20056;-61
2023/05/04 06:46:42;;;;;;;20.70;13.18;;;;;;;;;;5034046;28;20364;-62
2023/05/04 06:49:08;;;;;;;20.17;12.27;;;;;;;;;;5033640;28;20112;-62
2023/05/04 06:51:36;;;;;;;19.90;13.13;;;;;;;;;;5033494;28;20025;-62
2023/05/04 06:54:02;;;;;;;17.85;11.63;;;;;;;;;;5033199;28;20052;-62
2023/05/04 06:56:28;;;;;;;19.20;12.02;;;;;;;;;;5032826;28;20032;-63
2023/05/04 06:58:54;;;;;;;22.75;13.38;;;;;;;;;;5032904;28;20028;-61
2023/05/04 07:01:20;;;;;;;24.55;13.18;;;;;;;;;;5033371;28;20031;-65
2023/05/04 07:03:46;;;;;;;23.45;13.20;;;;;;;;;;5040588;28;20089;-62
2023/05/04 07:06:12;;;;;;;20.10;12.98;;;;;;;;;;5040449;28;20030;-63
2023/05/04 07:08:38;;;;;;;22.15;13.05;;;;;;;;;;5017755;28;20061;-57
2023/05/04 07:11:05;;;;;;;25.35;13.38;;;;;;;;;;5033251;28;20054;-61
2023/05/04 07:13:31;;;;;;;23.77;13.15;;;;;;;;;;5032835;28;20061;-61
2023/05/04 07:15:57;;;;;;;20.75;13.10;;;;;;;;;;5015507;28;20136;-58
2023/05/04 07:18:23;;;;;;;21.90;12.77;;;;;;;;;;5015848;28;20058;-56
2023/05/04 07:20:49;;;;;;;19.35;13.60;;;;;;;;;;5033149;28;20029;-56
2023/05/04 07:23:15;;;;;;;20.40;13.65;;;;;;;;;;5032123;28;20346;-60
2023/05/04 07:25:41;;;;;;;21.10;13.88;;;;;;;;;;5032509;28;20493;-60
2023/05/04 07:28:07;;;;;;;22.15;14.00;;;;;;;;;;5032964;28;20144;-58
2023/05/04 07:30:33;;;;;;;20.90;13.65;;;;;;;;;;5033418;28;20057;-61
2023/05/04 07:33:00;;;;;;;21.20;14.13;;;;;;;;;;5033256;28;20030;-53
2023/05/04 07:35:26;;;;;;;23.65;14.45;;;;;;;;;;5032746;28;20473;-55
2023/05/04 07:37:52;;;;;;;21.40;14.40;;;;;;;;;;5015010;28;20075;-55
2023/05/04 07:40:18;;;;;;;20.92;13.05;;;;;;;;;;5032863;28;20025;-57
2023/05/04 07:42:44;;;;;;;21.38;14.00;;;;;;;;;;5032243;28;20029;-58
2023/05/04 07:45:10;;;;;;;19.85;13.90;;;;;;;;;;5033084;28;20053;-58
2023/05/04 07:47:36;;;;;;;24.15;14.40;;;;;;;;;;5032646;28;20393;-57
2023/05/04 07:50:03;;;;;;;21.50;13.52;;;;;;;;;;5034689;28;20026;-52
2023/05/04 07:52:29;;;;;;;20.25;14.25;;;;;;;;;;5043395;28;20026;-56
2023/05/04 07:54:55;;;;;;;21.95;14.73;;;;;;;;;;5036005;28;20021;-59
2023/05/04 07:57:21;;;;;;;23.75;14.60;;;;;;;;;;5030392;28;20404;-57
2023/05/04 07:59:47;;;;;;;23.35;14.60;;;;;;;;;;5039759;28;20481;-58
2023/05/04 08:02:13;;;;;;;25.20;15.30;;;;;;;;;;5039173;28;20159;-54
2023/05/04 08:04:39;;;;;;;20.15;14.73;;;;;;;;;;5031564;28;20029;-55
2023/05/04 08:07:05;;;;;;;21.83;15.05;;;;;;;;;;5040669;28;20026;-55
2023/05/04 08:09:33;;;;;;;23.02;15.88;;;;;;;;;;5022650;28;20073;-61
2023/05/04 08:11:59;;;;;;;24.48;14.82;;;;;;;;;;5041295;28;20428;-57
2023/05/04 08:14:24;;;;;;;19.75;13.85;;;;;;;;;;5040868;28;20616;-56
2023/05/04 08:16:50;;;;;;;19.88;14.13;;;;;;;;;;5043858;28;20055;-55
2023/05/04 08:19:19;;;;;;;22.90;15.65;;;;;;;;;;5052183;28;20033;-59
2023/05/04 08:21:44;;;;;;;25.25;15.70;;;;;;;;;;5047672;28;20031;-59
2023/05/04 08:24:10;;;;;;;20.13;13.52;;;;;;;;;;5037362;28;20030;-57
2023/05/04 08:26:37;;;;;;;21.13;14.40;;;;;;;;;;5040196;28;20025;-57
2023/05/04 08:29:07;;;;;;;20.58;13.75;;;;;;;;;;5039823;28;20064;-58
2023/05/04 08:31:33;;;;;;;36.60;14.55;;;;;;;;;;5033458;28;20756;-60
2023/05/04 08:34:00;;;;;;;21.40;14.75;;;;;;;;;;5012572;28;20030;-58
2023/05/04 08:36:26;;;;;;;19.45;13.70;;;;;;;;;;5030960;28;20022;-60
2023/05/04 08:38:55;;;;;;;19.52;14.00;;;;;;;;;;5029347;28;20074;-62
2023/05/04 08:41:24;;;;;;;20.33;14.45;;;;;;;;;;5030618;28;20021;-60
2023/05/04 08:43:50;;;;;;;22.23;14.95;;;;;;;;;;5030065;28;20112;-59
2023/05/04 08:46:16;;;;;;;22.33;14.07;;;;;;;;;;5030060;28;20021;-59
2023/05/04 08:48:43;;;;;;;21.70;13.88;;;;;;;;;;5012580;28;20029;-60
2023/05/04 08:51:09;;;;;;;22.35;14.27;;;;;;;;;;5031112;28;20032;-58
2023/05/04 08:53:37;;;;;;;21.80;14.07;;;;;;;;;;5030490;28;20026;-60
2023/05/04 08:56:08;;;;;;;22.25;13.48;;;;;;;;;;5030277;28;20022;-58
2023/05/04 08:58:36;;;;;;;20.13;13.32;;;;;;;;;;5030780;28;20083;-58
2023/05/04 09:01:02;;;;;;;;;;;;;;;;;;5013203;28;20025;-59
2023/05/04 09:03:29;;;;;;;19.20;13.75;;;;;;;;;;5030416;28;19951;-61
2023/05/04 09:05:55;;;;;;;19.30;13.73;;;;;;;;;;5030517;28;20025;-61
2023/05/04 09:08:21;;;;;;;18.92;13.35;;;;;;;;;;5030478;28;20030;-61
2023/05/04 09:10:47;;;;;;;19.65;14.27;;;;;;;;;;5012557;28;20116;-62
2023/05/04 09:13:13;;;;;;;19.23;13.20;;;;;;;;;;5030669;28;20049;-61
2023/05/04 09:15:39;;;;;;;22.70;13.00;;;;;;;;;;5031047;28;20628;-61
2023/05/04 09:18:06;;;;;;;19.13;13.52;;;;;;;;;;5012737;28;20056;-60
2023/05/04 09:20:48;;;;;;;20.10;12.82;;;;;;;;;;5030348;28;20033;-63
2023/05/04 09:23:15;;;;;;;22.40;14.23;;;;;;;;;;5030354;28;20021;-60
2023/05/04 09:25:48;;;;;;;20.13;13.52;;;;;;;;;;5029909;28;20025;-60
2023/05/04 09:28:14;;;;;;;20.13;13.20;;;;;;;;;;5029892;28;20074;-61
2023/05/04 09:30:40;;;;;;;20.25;13.68;;;;;;;;;;5030000;28;20037;-61
2023/05/04 09:33:06;;;;;;;23.75;14.43;;;;;;;;;;5035514;28;20013;-61
2023/05/04 09:35:32;;;;;;;23.15;13.63;;;;;;;;;;5044192;28;20021;-58
2023/05/04 09:37:58;;;;;;;18.67;13.55;;;;;;;;;;5049693;28;20080;-60
2023/05/04 09:40:31;;;;;;;20.38;14.18;;;;;;;;;;5032568;28;20477;-62
2023/05/04 09:42:57;;;;;;;21.92;13.98;;;;;;;;;;5034445;28;20033;-62
2023/05/04 09:45:23;;;;;;;21.73;15.00;;;;;;;;;;5031393;28;20113;-63
2023/05/04 09:47:54;;;;;;;22.25;14.00;;;;;;;;;;5033749;28;20105;-59
2023/05/04 09:50:21;;;;;;;20.58;13.75;;;;;;;;;;5033289;28;20049;-61
2023/05/04 09:52:48;;;;;;;18.67;14.33;;;;;;;;;;5033373;28;20022;-59
2023/05/04 09:55:15;;;;;;;21.52;14.35;;;;;;;;;;5033075;28;20267;-59
2023/05/04 09:57:41;;;;;;;41.53;15.93;;;;;;;;;;5033083;28;20099;-61
2023/05/04 10:00:16;;;;;;;22.17;14.88;;;;;;;;;;5033558;28;20029;-63
2023/05/04 10:02:45;;;;;;;24.13;13.98;;;;;;;;;;5033137;28;20076;-61
2023/05/04 10:05:13;;;;;;;27.90;15.70;;;;;;;;;;5032819;28;20025;-61
2023/05/04 10:07:39;;;;;;;;;;;;;;;;;;5033126;28;20038;-61
2023/05/04 10:10:06;;;;;;;19.63;14.57;;;;;;;;;;5026214;28;19916;-59
2023/05/04 10:12:32;;;;;;;19.00;14.05;;;;;;;;;;5025871;28;20025;-62
2023/05/04 10:14:58;;;;;;;19.00;14.10;;;;;;;;;;5032407;28;20026;-61
2023/05/04 10:17:43;;;;;;;21.30;14.52;;;;;;;;;;5033072;28;20024;-61
2023/05/04 10:20:09;;;;;;;19.10;14.30;;;;;;;;;;5032573;28;20440;-63
2023/05/04 10:22:35;;;;;;;19.67;15.07;;;;;;;;;;5033195;28;20167;-58
2023/05/04 10:25:07;;;;;;;18.95;14.38;;;;;;;;;;5032553;28;20128;-61
2023/05/04 10:27:35;;;;;;;20.52;14.93;;;;;;;;;;5032710;28;20116;-59
2023/05/04 10:30:02;;;;;;;21.60;14.52;;;;;;;;;;5032116;28;20029;-59
2023/05/04 10:32:28;;;;;;;24.45;15.18;;;;;;;;;;5032049;28;20485;-61
2023/05/04 10:35:03;;;;;;;23.35;15.65;;;;;;;;;;5032017;28;20032;-61
2023/05/04 10:37:30;;;;;;;19.00;14.50;;;;;;;;;;5032219;28;20031;-59
2023/05/04 10:39:56;;;;;;;18.77;14.13;;;;;;;;;;5014544;28;20029;-59
2023/05/04 10:42:22;;;;;;;22.67;13.63;;;;;;;;;;5032037;28;20029;-58
2023/05/04 10:44:53;;;;;;;21.92;15.15;;;;;;;;;;5032016;28;20069;-60
2023/05/04 10:47:33;;;;;;;18.70;13.73;;;;;;;;;;5032154;28;20021;-61
2023/05/04 10:50:05;;;;;;;20.13;13.55;;;;;;;;;;5024782;28;20380;-60
2023/05/04 10:52:32;;;;;;;18.63;13.88;;;;;;;;;;5032113;28;20112;-63
2023/05/04 10:55:02;;;;;;;21.48;14.55;;;;;;;;;;5013967;28;20022;-59
2023/05/04 10:57:30;;;;;;;19.95;14.23;;;;;;;;;;5013118;28;20026;-59
2023/05/04 10:59:56;;;;;;;22.38;14.35;;;;;;;;;;5031975;28;20444;-63
2023/05/04 11:02:23;;;;;;;19.45;14.15;;;;;;;;;;5031958;28;20075;-60
2023/05/04 11:05:05;;;;;;;19.40;14.13;;;;;;;;;;5031782;28;20036;-62
2023/05/04 11:07:38;;;;;;;20.35;14.60;;;;;;;;;;5031862;28;20041;-61
2023/05/04 11:10:04;;;;;;;20.05;13.48;;;;;;;;;;5031620;28;20055;-59
2023/05/04 11:12:31;;;;;;;19.88;13.63;;;;;;;;;;5031698;28;20032;-59
2023/05/04 11:15:04;;;;;;;18.70;14.20;;;;;;;;;;5013667;28;20029;-61
2023/05/04 11:17:30;;;;;;;18.58;14.27;;;;;;;;;;5033267;28;20096;-57
2023/05/04 11:19:56;;;;;;;20.10;14.70;;;;;;;;;;5051343;28;20102;-60
2023/05/04 11:22:23;;;;;;;23.20;15.82;;;;;;;;;;5023510;28;20088;-62
2023/05/04 11:24:49;;;;;;;17.33;14.02;;;;;;;;;;5031062;28;20180;-62
2023/05/04 11:27:24;;;;;;;22.73;14.65;;;;;;;;;;5031394;28;20401;-58
2023/05/04 11:30:01;;;;;;;19.75;14.45;;;;;;;;;;5038351;28;20112;-61
2023/05/04 11:32:34;;;;;;;18.05;13.85;;;;;;;;;;5031390;28;20473;-61
2023/05/04 11:35:00;;;;;;;20.08;14.15;;;;;;;;;;5013457;28;20022;-59
2023/05/04 11:37:28;;;;;;;19.05;13.73;;;;;;;;;;5032056;28;20022;-62
2023/05/04 11:39:55;;;;;;;18.77;13.75;;;;;;;;;;5031932;28;20095;-62
2023/05/04 11:42:21;;;;;;;17.42;14.05;;;;;;;;;;5031514;28;20021;-62
2023/05/04 11:44:47;;;;;;;19.35;13.90;;;;;;;;;;5013513;28;20382;-60
2023/05/04 11:47:13;;;;;;;18.10;13.25;;;;;;;;;;5014282;28;20151;-61
2023/05/04 11:49:39;;;;;;;16.50;12.98;;;;;;;;;;5031133;28;20389;-61
2023/05/04 11:52:09;;;;;;;18.25;14.48;;;;;;;;;;5013275;28;20029;-62
2023/05/04 11:54:38;;;;;;;17.52;13.82;;;;;;;;;;5032180;28;20059;-63
2023/05/04 11:57:04;;;;;;;19.88;13.88;;;;;;;;;;5039793;28;20026;-60
2023/05/04 11:59:30;;;;;;;21.55;14.18;;;;;;;;;;5030646;28;20412;-62
2023/05/04 12:01:57;;;;;;;20.58;14.23;;;;;;;;;;5031010;28;20033;-61
2023/05/04 12:04:23;;;;;;;18.35;13.93;;;;;;;;;;5030802;28;20422;-60
2023/05/04 12:06:49;;;;;;;18.00;14.32;;;;;;;;;;5031173;28;20113;-61
2023/05/04 12:09:15;;;;;;;18.73;14.38;;;;;;;;;;5030654;28;20033;-60
2023/05/04 12:11:42;;;;;;;19.07;14.13;;;;;;;;;;4683068;28;10001273;-61
2023/05/04 12:14:09;;;;;;;17.52;14.20;;;;;;;;;;5023838;28;20100;-61
2023/05/04 12:16:35;;;;;;;16.67;13.37;;;;;;;;;;5023487;28;20397;-61
2023/05/04 12:19:09;;;;;;;17.50;14.15;;;;;;;;;;5008047;28;20291;-62
2023/05/04 12:21:36;;;;;;;21.33;14.77;;;;;;;;;;5016414;28;20155;-61
2023/05/04 12:24:02;;;;;;;19.55;14.75;;;;;;;;;;5027551;28;20124;-62
2023/05/04 12:26:28;;;;;;;19.45;14.80;;;;;;;;;;5028071;28;20030;-61
2023/05/04 12:28:55;;;;;;;18.20;15.07;;;;;;;;;;5028115;28;20026;-61
2023/05/04 12:31:21;;;;;;;18.02;14.63;;;;;;;;;;5010192;28;20082;-62
2023/05/04 12:33:49;;;;;;;19.63;15.13;;;;;;;;;;5008621;28;20037;-61
2023/05/04 12:36:16;;;;;;;19.15;14.75;;;;;;;;;;5008888;28;20478;-59
2023/05/04 12:38:42;;;;;;;18.98;14.85;;;;;;;;;;5009600;28;20048;-63
2023/05/04 12:41:09;;;;;;;19.42;14.80;;;;;;;;;;5010207;28;20328;-63
2023/05/04 12:43:36;;;;;;;18.60;13.85;;;;;;;;;;5009970;28;20121;-61
2023/05/04 12:46:02;;;;;;;20.30;14.63;;;;;;;;;;5010309;28;20053;-60
2023/05/04 12:48:30;;;;;;;20.83;14.82;;;;;;;;;;5027996;28;20033;-63
2023/05/04 12:50:56;;;;;;;18.92;15.05;;;;;;;;;;5030080;28;20358;-61
2023/05/04 12:53:26;;;;;;;18.80;15.02;;;;;;;;;;5030073;28;20437;-61
2023/05/04 12:55:52;;;;;;;19.17;15.15;;;;;;;;;;5029965;28;20486;-60
2023/05/04 12:58:18;;;;;;;19.15;15.80;;;;;;;;;;5030109;28;20104;-59
2023/05/04 13:00:45;;;;;;;18.98;15.18;;;;;;;;;;5030029;28;20022;-61
2023/05/04 13:03:11;;;;;;;19.25;15.50;;;;;;;;;;5011866;28;20025;-60
2023/05/04 13:05:37;;;;;;;21.30;16.30;;;;;;;;;;5029344;28;20033;-63
2023/05/04 13:08:03;;;;;;;20.35;16.77;;;;;;;;;;5012023;28;20401;-61
2023/05/04 13:10:30;;;;;;;19.77;15.80;;;;;;;;;;5029541;28;20038;-60
2023/05/04 13:12:56;;;;;;;18.85;15.75;;;;;;;;;;5029790;28;20025;-61
2023/05/04 13:15:22;;;;;;;19.92;16.30;;;;;;;;;;5029285;28;20029;-61
2023/05/04 13:17:48;;;;;;;20.30;15.80;;;;;;;;;;5029771;28;20475;-61
2023/05/04 13:20:15;;;;;;;19.50;16.08;;;;;;;;;;5029904;28;20532;-60
2023/05/04 13:22:41;;;;;;;20.02;16.40;;;;;;;;;;5033118;28;20065;-60
2023/05/04 13:25:07;;;;;;;18.35;15.40;;;;;;;;;;5015351;28;20026;-61
2023/05/04 13:27:33;;;;;;;18.23;15.38;;;;;;;;;;5033457;28;20116;-62
2023/05/04 13:30:01;;;;;;;18.42;15.98;;;;;;;;;;5034163;28;20057;-61
2023/05/04 13:32:27;;;;;;;;;;;;;;;;;;5034799;28;20021;-61
2023/05/04 13:34:53;;;;;;;19.20;15.57;;;;;;;;;;5034098;28;19905;-61
2023/05/04 13:37:19;;;;;;;23.98;16.75;;;;;;;;;;5016102;28;20021;-60
2023/05/04 13:39:45;;;;;;;19.67;15.45;;;;;;;;;;5034159;28;20446;-62
2023/05/04 13:42:12;;;;;;;19.55;15.90;;;;;;;;;;5033743;28;20029;-62
2023/05/04 13:44:43;;;;;;;21.00;16.20;;;;;;;;;;5033211;28;20421;-59
2023/05/04 13:47:09;;;;;;;18.60;15.75;;;;;;;;;;5031579;28;20552;-61
2023/05/04 13:49:35;;;;;;;19.58;16.00;;;;;;;;;;5013159;28;20109;-62
2023/05/04 13:52:01;;;;;;;20.63;15.93;;;;;;;;;;5013482;28;20104;-62
2023/05/04 13:54:27;;;;;;;18.63;15.70;;;;;;;;;;5013309;28;20021;-62
2023/05/04 13:56:53;;;;;;;18.17;15.65;;;;;;;;;;5013521;28;20045;-63
2023/05/04 13:59:19;;;;;;;18.83;15.77;;;;;;;;;;5013553;28;20026;-61
2023/05/04 14:01:45;;;;;;;18.73;16.00;;;;;;;;;;5013463;28;20057;-62
2023/05/04 14:04:11;;;;;;;23.02;15.60;;;;;;;;;;5013216;28;20487;-61
2023/05/04 14:06:37;;;;;;;19.40;16.40;;;;;;;;;;5013326;28;20030;-61
2023/05/04 14:09:04;;;;;;;19.15;16.27;;;;;;;;;;5013006;28;20022;-61
2023/05/04 14:11:30;;;;;;;18.67;16.67;;;;;;;;;;5013057;28;20018;-61
2023/05/04 14:13:56;;;;;;;20.15;15.73;;;;;;;;;;5021156;28;20025;-61
2023/05/04 14:16:22;;;;;;;21.27;15.85;;;;;;;;;;5032843;28;20079;-61